sensor_id;sensor_type;location;lat;lon;timestamp;P1;durP1;ratioP1;P2;durP2;ratioP2
18568;SDS011;14780;48.316;-1.050;2022-07-29T00:01:53;7.20;;;2.42;;
18568;SDS011;14780;48.316;-1.050;2022-07-29T00:04:38;6.03;;;2.42;;
18568;SDS011;14780;48.316;-1.050;2022-07-29T00:07:23;8.10;;;3.65;;
18568;SDS011;14780;48.316;-1.050;2022-07-29T00:10:08;7.25;;;2.88;;
18568;SDS011;14780;48.316;-1.050;2022-07-29T00:12:53;12.45;;;3.08;;
18568;SDS011;14780;48.316;-1.050;2022-07-29T00:15:38;7.97;;;3.20;;
18568;SDS011;14780;48.316;-1.050;2022-07-29T00:18:23;6.07;;;2.33;;
18568;SDS011;14780;48.316;-1.050;2022-07-29T00:21:07;8.13;;;2.83;;
18568;SDS011;14780;48.316;-1.050;2022-07-29T00:23:52;5.97;;;2.72;;
18568;SDS011;14780;48.316;-1.050;2022-07-29T00:26:36;6.05;;;2.30;;
18568;SDS011;14780;48.316;-1.050;2022-07-29T00:29:21;5.85;;;2.42;;
18568;SDS011;14780;48.316;-1.050;2022-07-29T00:32:06;8.88;;;2.63;;
18568;SDS011;14780;48.316;-1.050;2022-07-29T00:34:50;6.20;;;2.40;;
18568;SDS011;14780;48.316;-1.050;2022-07-29T00:37:54;8.15;;;3.28;;
18568;SDS011;14780;48.316;-1.050;2022-07-29T00:40:38;9.27;;;3.00;;
18568;SDS011;14780;48.316;-1.050;2022-07-29T00:43:24;7.05;;;2.67;;
18568;SDS011;14780;48.316;-1.050;2022-07-29T00:46:10;5.32;;;2.53;;
18568;SDS011;14780;48.316;-1.050;2022-07-29T00:48:55;6.50;;;2.63;;
18568;SDS011;14780;48.316;-1.050;2022-07-29T00:51:40;5.93;;;2.30;;
18568;SDS011;14780;48.316;-1.050;2022-07-29T00:54:26;6.60;;;2.35;;
18568;SDS011;14780;48.316;-1.050;2022-07-29T00:57:12;5.10;;;1.95;;
18568;SDS011;14780;48.316;-1.050;2022-07-29T00:59:57;5.50;;;2.35;;
18568;SDS011;14780;48.316;-1.050;2022-07-29T01:02:42;5.53;;;2.15;;
18568;SDS011;14780;48.316;-1.050;2022-07-29T01:05:28;6.07;;;2.00;;
18568;SDS011;14780;48.316;-1.050;2022-07-29T01:08:14;5.32;;;2.00;;
18568;SDS011;14780;48.316;-1.050;2022-07-29T01:11:00;5.38;;;2.00;;
18568;SDS011;14780;48.316;-1.050;2022-07-29T01:13:46;4.65;;;2.17;;
18568;SDS011;14780;48.316;-1.050;2022-07-29T01:16:32;5.53;;;2.20;;
18568;SDS011;14780;48.316;-1.050;2022-07-29T01:32:13;4.47;;;1.70;;
18568;SDS011;14780;48.316;-1.050;2022-07-29T01:35:07;5.40;;;1.95;;
18568;SDS011;14780;48.316;-1.050;2022-07-29T01:38:12;6.28;;;2.20;;
18568;SDS011;14780;48.316;-1.050;2022-07-29T01:41:08;7.03;;;2.40;;
18568;SDS011;14780;48.316;-1.050;2022-07-29T01:43:57;5.38;;;2.53;;
18568;SDS011;14780;48.316;-1.050;2022-07-29T01:46:49;6.38;;;2.42;;
18568;SDS011;14780;48.316;-1.050;2022-07-29T01:49:40;4.43;;;1.70;;
18568;SDS011;14780;48.316;-1.050;2022-07-29T01:52:34;4.95;;;1.83;;
18568;SDS011;14780;48.316;-1.050;2022-07-29T01:55:42;5.53;;;1.92;;
18568;SDS011;14780;48.316;-1.050;2022-07-29T01:58:29;3.75;;;1.63;;
18568;SDS011;14780;48.316;-1.050;2022-07-29T02:01:16;4.10;;;1.80;;
18568;SDS011;14780;48.316;-1.050;2022-07-29T02:04:03;4.03;;;1.77;;
18568;SDS011;14780;48.316;-1.050;2022-07-29T02:06:52;5.22;;;1.98;;
18568;SDS011;14780;48.316;-1.050;2022-07-29T02:09:38;5.88;;;1.88;;
18568;SDS011;14780;48.316;-1.050;2022-07-29T02:12:25;5.82;;;1.92;;
18568;SDS011;14780;48.316;-1.050;2022-07-29T02:15:12;4.43;;;1.70;;
18568;SDS011;14780;48.316;-1.050;2022-07-29T02:18:15;4.13;;;1.90;;
18568;SDS011;14780;48.316;-1.050;2022-07-29T02:21:02;4.03;;;1.55;;
18568;SDS011;14780;48.316;-1.050;2022-07-29T02:23:48;3.80;;;1.75;;
18568;SDS011;14780;48.316;-1.050;2022-07-29T02:26:34;3.30;;;1.33;;
18568;SDS011;14780;48.316;-1.050;2022-07-29T02:29:21;5.43;;;2.22;;
18568;SDS011;14780;48.316;-1.050;2022-07-29T02:32:08;4.57;;;1.83;;
18568;SDS011;14780;48.316;-1.050;2022-07-29T02:34:57;5.75;;;1.98;;
18568;SDS011;14780;48.316;-1.050;2022-07-29T02:37:44;3.65;;;1.38;;
18568;SDS011;14780;48.316;-1.050;2022-07-29T02:40:50;5.05;;;1.73;;
18568;SDS011;14780;48.316;-1.050;2022-07-29T02:43:37;3.25;;;1.55;;
18568;SDS011;14780;48.316;-1.050;2022-07-29T02:46:25;4.15;;;1.58;;
18568;SDS011;14780;48.316;-1.050;2022-07-29T02:49:18;5.72;;;2.00;;
18568;SDS011;14780;48.316;-1.050;2022-07-29T02:52:33;4.13;;;1.45;;
18568;SDS011;14780;48.316;-1.050;2022-07-29T02:55:33;3.72;;;1.40;;
18568;SDS011;14780;48.316;-1.050;2022-07-29T02:58:31;3.72;;;1.38;;
18568;SDS011;14780;48.316;-1.050;2022-07-29T03:01:25;3.60;;;1.73;;
18568;SDS011;14780;48.316;-1.050;2022-07-29T03:04:15;2.80;;;1.15;;
18568;SDS011;14780;48.316;-1.050;2022-07-29T03:07:03;3.08;;;1.63;;
18568;SDS011;14780;48.316;-1.050;2022-07-29T03:09:48;2.97;;;1.05;;
18568;SDS011;14780;48.316;-1.050;2022-07-29T03:12:35;4.40;;;1.70;;
18568;SDS011;14780;48.316;-1.050;2022-07-29T03:15:20;2.85;;;1.05;;
18568;SDS011;14780;48.316;-1.050;2022-07-29T03:18:05;2.53;;;1.13;;
18568;SDS011;14780;48.316;-1.050;2022-07-29T03:20:51;2.85;;;1.27;;
18568;SDS011;14780;48.316;-1.050;2022-07-29T03:23:36;3.08;;;1.50;;
18568;SDS011;14780;48.316;-1.050;2022-07-29T03:26:27;3.80;;;1.60;;
18568;SDS011;14780;48.316;-1.050;2022-07-29T03:29:11;4.05;;;1.25;;
18568;SDS011;14780;48.316;-1.050;2022-07-29T03:31:56;3.90;;;1.42;;
18568;SDS011;14780;48.316;-1.050;2022-07-29T03:34:41;2.90;;;1.17;;
18568;SDS011;14780;48.316;-1.050;2022-07-29T03:37:25;3.90;;;1.35;;
18568;SDS011;14780;48.316;-1.050;2022-07-29T03:40:11;3.63;;;1.55;;
18568;SDS011;14780;48.316;-1.050;2022-07-29T03:43:02;2.15;;;0.98;;
18568;SDS011;14780;48.316;-1.050;2022-07-29T03:45:49;3.22;;;1.05;;
18568;SDS011;14780;48.316;-1.050;2022-07-29T03:48:39;2.85;;;1.38;;
18568;SDS011;14780;48.316;-1.050;2022-07-29T03:51:26;4.65;;;1.20;;
18568;SDS011;14780;48.316;-1.050;2022-07-29T03:54:11;3.17;;;1.35;;
18568;SDS011;14780;48.316;-1.050;2022-07-29T03:56:58;3.38;;;1.38;;
18568;SDS011;14780;48.316;-1.050;2022-07-29T03:59:44;2.70;;;1.20;;
18568;SDS011;14780;48.316;-1.050;2022-07-29T04:02:30;2.97;;;1.00;;
18568;SDS011;14780;48.316;-1.050;2022-07-29T04:05:18;2.25;;;1.13;;
18568;SDS011;14780;48.316;-1.050;2022-07-29T04:08:03;2.22;;;1.15;;
18568;SDS011;14780;48.316;-1.050;2022-07-29T04:10:48;3.10;;;1.23;;
18568;SDS011;14780;48.316;-1.050;2022-07-29T04:13:33;2.83;;;1.08;;
18568;SDS011;14780;48.316;-1.050;2022-07-29T04:16:18;1.83;;;0.93;;
18568;SDS011;14780;48.316;-1.050;2022-07-29T04:19:02;4.35;;;1.25;;
18568;SDS011;14780;48.316;-1.050;2022-07-29T04:21:47;2.45;;;0.98;;
18568;SDS011;14780;48.316;-1.050;2022-07-29T04:24:32;2.45;;;1.20;;
18568;SDS011;14780;48.316;-1.050;2022-07-29T04:27:18;2.38;;;1.00;;
18568;SDS011;14780;48.316;-1.050;2022-07-29T04:30:02;2.95;;;1.17;;
18568;SDS011;14780;48.316;-1.050;2022-07-29T04:32:47;3.35;;;1.20;;
18568;SDS011;14780;48.316;-1.050;2022-07-29T04:35:38;2.42;;;1.00;;
18568;SDS011;14780;48.316;-1.050;2022-07-29T04:38:23;2.38;;;1.23;;
18568;SDS011;14780;48.316;-1.050;2022-07-29T04:41:07;3.33;;;0.80;;
18568;SDS011;14780;48.316;-1.050;2022-07-29T04:43:52;2.38;;;1.35;;
18568;SDS011;14780;48.316;-1.050;2022-07-29T04:46:36;3.03;;;1.05;;
18568;SDS011;14780;48.316;-1.050;2022-07-29T04:49:21;2.78;;;1.17;;
18568;SDS011;14780;48.316;-1.050;2022-07-29T04:52:06;1.80;;;0.85;;
18568;SDS011;14780;48.316;-1.050;2022-07-29T04:54:51;3.42;;;1.15;;
18568;SDS011;14780;48.316;-1.050;2022-07-29T04:57:36;2.20;;;1.17;;
18568;SDS011;14780;48.316;-1.050;2022-07-29T05:00:20;1.83;;;1.00;;
18568;SDS011;14780;48.316;-1.050;2022-07-29T05:03:06;2.13;;;0.82;;
18568;SDS011;14780;48.316;-1.050;2022-07-29T05:05:51;2.63;;;1.20;;
18568;SDS011;14780;48.316;-1.050;2022-07-29T05:08:36;3.10;;;1.10;;
18568;SDS011;14780;48.316;-1.050;2022-07-29T05:11:21;2.38;;;0.90;;
18568;SDS011;14780;48.316;-1.050;2022-07-29T05:14:06;1.70;;;0.80;;
18568;SDS011;14780;48.316;-1.050;2022-07-29T05:16:50;1.88;;;0.82;;
18568;SDS011;14780;48.316;-1.050;2022-07-29T05:19:36;1.95;;;0.80;;
18568;SDS011;14780;48.316;-1.050;2022-07-29T05:22:21;1.85;;;0.88;;
18568;SDS011;14780;48.316;-1.050;2022-07-29T05:25:06;2.15;;;0.98;;
18568;SDS011;14780;48.316;-1.050;2022-07-29T05:27:52;2.60;;;1.00;;
18568;SDS011;14780;48.316;-1.050;2022-07-29T05:30:38;2.30;;;0.88;;
18568;SDS011;14780;48.316;-1.050;2022-07-29T05:33:22;2.20;;;1.00;;
18568;SDS011;14780;48.316;-1.050;2022-07-29T05:36:07;1.83;;;0.85;;
18568;SDS011;14780;48.316;-1.050;2022-07-29T05:38:51;3.05;;;1.20;;
18568;SDS011;14780;48.316;-1.050;2022-07-29T05:41:36;1.70;;;0.50;;
18568;SDS011;14780;48.316;-1.050;2022-07-29T05:44:21;1.60;;;0.73;;
18568;SDS011;14780;48.316;-1.050;2022-07-29T05:47:05;3.33;;;1.23;;
18568;SDS011;14780;48.316;-1.050;2022-07-29T05:49:50;1.85;;;0.70;;
18568;SDS011;14780;48.316;-1.050;2022-07-29T05:52:35;3.20;;;1.10;;
18568;SDS011;14780;48.316;-1.050;2022-07-29T05:55:20;1.52;;;0.77;;
18568;SDS011;14780;48.316;-1.050;2022-07-29T05:58:04;1.90;;;0.80;;
18568;SDS011;14780;48.316;-1.050;2022-07-29T06:00:49;1.52;;;0.73;;
18568;SDS011;14780;48.316;-1.050;2022-07-29T06:03:34;2.17;;;0.73;;
18568;SDS011;14780;48.316;-1.050;2022-07-29T06:06:21;1.73;;;0.80;;
18568;SDS011;14780;48.316;-1.050;2022-07-29T06:09:06;2.25;;;0.80;;
18568;SDS011;14780;48.316;-1.050;2022-07-29T06:11:51;1.63;;;0.75;;
18568;SDS011;14780;48.316;-1.050;2022-07-29T06:14:36;2.90;;;1.27;;
18568;SDS011;14780;48.316;-1.050;2022-07-29T06:17:21;1.33;;;0.75;;
18568;SDS011;14780;48.316;-1.050;2022-07-29T06:20:06;1.90;;;0.82;;
18568;SDS011;14780;48.316;-1.050;2022-07-29T06:22:51;2.33;;;1.52;;
18568;SDS011;14780;48.316;-1.050;2022-07-29T06:25:36;2.60;;;0.73;;
18568;SDS011;14780;48.316;-1.050;2022-07-29T06:28:21;2.58;;;0.90;;
18568;SDS011;14780;48.316;-1.050;2022-07-29T06:31:06;1.63;;;0.80;;
18568;SDS011;14780;48.316;-1.050;2022-07-29T06:33:51;1.95;;;0.93;;
18568;SDS011;14780;48.316;-1.050;2022-07-29T06:36:37;2.08;;;1.10;;
18568;SDS011;14780;48.316;-1.050;2022-07-29T06:39:21;2.58;;;0.88;;
18568;SDS011;14780;48.316;-1.050;2022-07-29T06:42:06;2.00;;;0.68;;
18568;SDS011;14780;48.316;-1.050;2022-07-29T06:44:51;3.85;;;0.70;;
18568;SDS011;14780;48.316;-1.050;2022-07-29T06:47:35;2.53;;;1.13;;
18568;SDS011;14780;48.316;-1.050;2022-07-29T06:50:20;1.20;;;0.70;;
18568;SDS011;14780;48.316;-1.050;2022-07-29T06:53:05;2.65;;;0.70;;
18568;SDS011;14780;48.316;-1.050;2022-07-29T06:55:49;2.95;;;1.00;;
18568;SDS011;14780;48.316;-1.050;2022-07-29T06:58:35;1.27;;;0.85;;
18568;SDS011;14780;48.316;-1.050;2022-07-29T07:01:20;1.60;;;0.65;;
18568;SDS011;14780;48.316;-1.050;2022-07-29T07:04:04;3.22;;;0.90;;
18568;SDS011;14780;48.316;-1.050;2022-07-29T07:06:49;1.52;;;0.60;;
18568;SDS011;14780;48.316;-1.050;2022-07-29T07:09:34;1.20;;;0.52;;
18568;SDS011;14780;48.316;-1.050;2022-07-29T07:12:18;2.22;;;0.77;;
18568;SDS011;14780;48.316;-1.050;2022-07-29T07:15:03;1.88;;;0.85;;
18568;SDS011;14780;48.316;-1.050;2022-07-29T07:17:49;4.32;;;0.95;;
18568;SDS011;14780;48.316;-1.050;2022-07-29T07:20:34;3.17;;;1.02;;
18568;SDS011;14780;48.316;-1.050;2022-07-29T07:23:19;1.33;;;0.63;;
18568;SDS011;14780;48.316;-1.050;2022-07-29T07:26:03;2.25;;;1.02;;
18568;SDS011;14780;48.316;-1.050;2022-07-29T07:28:49;2.92;;;0.80;;
18568;SDS011;14780;48.316;-1.050;2022-07-29T07:31:33;2.45;;;1.20;;
18568;SDS011;14780;48.316;-1.050;2022-07-29T07:34:19;1.45;;;0.63;;
18568;SDS011;14780;48.316;-1.050;2022-07-29T07:37:05;2.20;;;0.70;;
18568;SDS011;14780;48.316;-1.050;2022-07-29T07:39:50;3.65;;;1.17;;
18568;SDS011;14780;48.316;-1.050;2022-07-29T07:42:35;3.15;;;1.10;;
18568;SDS011;14780;48.316;-1.050;2022-07-29T07:45:20;1.13;;;0.60;;
18568;SDS011;14780;48.316;-1.050;2022-07-29T07:48:04;1.55;;;0.60;;
18568;SDS011;14780;48.316;-1.050;2022-07-29T07:50:49;1.90;;;0.80;;
18568;SDS011;14780;48.316;-1.050;2022-07-29T07:53:35;1.85;;;0.57;;
18568;SDS011;14780;48.316;-1.050;2022-07-29T07:56:20;2.28;;;0.60;;
18568;SDS011;14780;48.316;-1.050;2022-07-29T07:59:05;1.73;;;0.70;;
18568;SDS011;14780;48.316;-1.050;2022-07-29T08:01:50;2.40;;;0.80;;
18568;SDS011;14780;48.316;-1.050;2022-07-29T08:04:34;1.23;;;0.60;;
18568;SDS011;14780;48.316;-1.050;2022-07-29T08:07:19;1.17;;;0.57;;
18568;SDS011;14780;48.316;-1.050;2022-07-29T08:10:04;2.13;;;0.47;;
18568;SDS011;14780;48.316;-1.050;2022-07-29T08:12:49;2.45;;;0.90;;
18568;SDS011;14780;48.316;-1.050;2022-07-29T08:15:34;1.02;;;0.60;;
18568;SDS011;14780;48.316;-1.050;2022-07-29T08:18:19;0.85;;;0.55;;
18568;SDS011;14780;48.316;-1.050;2022-07-29T08:21:04;1.65;;;0.68;;
18568;SDS011;14780;48.316;-1.050;2022-07-29T08:23:49;1.33;;;0.57;;
18568;SDS011;14780;48.316;-1.050;2022-07-29T08:26:36;2.60;;;0.95;;
18568;SDS011;14780;48.316;-1.050;2022-07-29T08:29:20;2.05;;;0.63;;
18568;SDS011;14780;48.316;-1.050;2022-07-29T08:32:05;1.55;;;0.50;;
18568;SDS011;14780;48.316;-1.050;2022-07-29T08:34:50;1.40;;;0.50;;
18568;SDS011;14780;48.316;-1.050;2022-07-29T08:37:34;1.15;;;0.52;;
18568;SDS011;14780;48.316;-1.050;2022-07-29T08:40:20;2.15;;;0.60;;
18568;SDS011;14780;48.316;-1.050;2022-07-29T08:43:07;4.25;;;1.30;;
18568;SDS011;14780;48.316;-1.050;2022-07-29T08:45:52;2.72;;;0.80;;
18568;SDS011;14780;48.316;-1.050;2022-07-29T08:48:37;4.60;;;0.85;;
18568;SDS011;14780;48.316;-1.050;2022-07-29T08:51:24;3.78;;;0.98;;
18568;SDS011;14780;48.316;-1.050;2022-07-29T08:54:11;4.68;;;1.33;;
18568;SDS011;14780;48.316;-1.050;2022-07-29T08:57:00;2.30;;;0.77;;
18568;SDS011;14780;48.316;-1.050;2022-07-29T08:59:47;0.98;;;0.50;;
18568;SDS011;14780;48.316;-1.050;2022-07-29T09:02:39;2.33;;;0.60;;
18568;SDS011;14780;48.316;-1.050;2022-07-29T09:05:28;1.67;;;0.95;;
18568;SDS011;14780;48.316;-1.050;2022-07-29T09:08:13;6.22;;;1.00;;
18568;SDS011;14780;48.316;-1.050;2022-07-29T09:11:00;5.18;;;0.73;;
18568;SDS011;14780;48.316;-1.050;2022-07-29T09:13:47;2.63;;;0.90;;
18568;SDS011;14780;48.316;-1.050;2022-07-29T09:19:33;4.35;;;1.05;;
18568;SDS011;14780;48.316;-1.050;2022-07-29T09:22:28;4.57;;;1.30;;
18568;SDS011;14780;48.316;-1.050;2022-07-29T09:28:18;6.05;;;0.63;;
18568;SDS011;14780;48.316;-1.050;2022-07-29T09:31:03;3.90;;;1.00;;
18568;SDS011;14780;48.316;-1.050;2022-07-29T09:33:49;4.38;;;0.80;;
18568;SDS011;14780;48.316;-1.050;2022-07-29T09:36:45;3.15;;;0.98;;
18568;SDS011;14780;48.316;-1.050;2022-07-29T09:39:33;7.03;;;1.10;;
18568;SDS011;14780;48.316;-1.050;2022-07-29T09:42:29;5.80;;;1.42;;
18568;SDS011;14780;48.316;-1.050;2022-07-29T09:45:33;3.30;;;1.33;;
18568;SDS011;14780;48.316;-1.050;2022-07-29T09:48:19;4.72;;;1.00;;
18568;SDS011;14780;48.316;-1.050;2022-07-29T09:51:04;4.25;;;0.75;;
18568;SDS011;14780;48.316;-1.050;2022-07-29T09:54:00;3.83;;;1.10;;
18568;SDS011;14780;48.316;-1.050;2022-07-29T09:56:47;3.15;;;1.13;;
18568;SDS011;14780;48.316;-1.050;2022-07-29T09:59:32;3.80;;;1.55;;
18568;SDS011;14780;48.316;-1.050;2022-07-29T10:02:17;3.10;;;0.82;;
18568;SDS011;14780;48.316;-1.050;2022-07-29T10:05:03;2.53;;;0.60;;
18568;SDS011;14780;48.316;-1.050;2022-07-29T10:07:59;2.50;;;0.90;;
18568;SDS011;14780;48.316;-1.050;2022-07-29T10:10:45;3.35;;;0.90;;
18568;SDS011;14780;48.316;-1.050;2022-07-29T10:13:30;4.90;;;0.88;;
18568;SDS011;14780;48.316;-1.050;2022-07-29T10:16:15;4.07;;;1.00;;
18568;SDS011;14780;48.316;-1.050;2022-07-29T10:19:00;9.15;;;1.92;;
18568;SDS011;14780;48.316;-1.050;2022-07-29T10:21:45;6.88;;;1.00;;
18568;SDS011;14780;48.316;-1.050;2022-07-29T10:24:32;14.45;;;1.45;;
18568;SDS011;14780;48.316;-1.050;2022-07-29T10:27:17;15.82;;;1.92;;
18568;SDS011;14780;48.316;-1.050;2022-07-29T10:30:03;4.93;;;1.35;;
18568;SDS011;14780;48.316;-1.050;2022-07-29T10:42:33;5.13;;;1.08;;
18568;SDS011;14780;48.316;-1.050;2022-07-29T10:45:24;6.53;;;1.00;;
18568;SDS011;14780;48.316;-1.050;2022-07-29T10:48:10;6.70;;;1.00;;
18568;SDS011;14780;48.316;-1.050;2022-07-29T10:51:04;4.82;;;0.93;;
18568;SDS011;14780;48.316;-1.050;2022-07-29T10:53:50;5.65;;;1.10;;
18568;SDS011;14780;48.316;-1.050;2022-07-29T10:56:36;3.20;;;0.80;;
18568;SDS011;14780;48.316;-1.050;2022-07-29T10:59:22;5.35;;;1.38;;
18568;SDS011;14780;48.316;-1.050;2022-07-29T11:05:23;2.72;;;1.00;;
18568;SDS011;14780;48.316;-1.050;2022-07-29T11:14:03;8.20;;;1.65;;
18568;SDS011;14780;48.316;-1.050;2022-07-29T11:17:01;9.07;;;1.27;;
18568;SDS011;14780;48.316;-1.050;2022-07-29T11:22:35;5.82;;;1.98;;
18568;SDS011;14780;48.316;-1.050;2022-07-29T11:25:20;3.88;;;1.35;;
18568;SDS011;14780;48.316;-1.050;2022-07-29T11:28:10;7.80;;;1.10;;
18568;SDS011;14780;48.316;-1.050;2022-07-29T11:31:00;7.68;;;1.10;;
18568;SDS011;14780;48.316;-1.050;2022-07-29T11:33:46;7.45;;;1.48;;
18568;SDS011;14780;48.316;-1.050;2022-07-29T11:36:31;7.55;;;2.30;;
18568;SDS011;14780;48.316;-1.050;2022-07-29T11:39:25;6.63;;;1.67;;
18568;SDS011;14780;48.316;-1.050;2022-07-29T11:45:09;6.32;;;1.55;;
18568;SDS011;14780;48.316;-1.050;2022-07-29T11:48:01;13.95;;;2.28;;
18568;SDS011;14780;48.316;-1.050;2022-07-29T11:50:49;9.13;;;1.35;;
18568;SDS011;14780;48.316;-1.050;2022-07-29T11:53:34;4.15;;;1.25;;
18568;SDS011;14780;48.316;-1.050;2022-07-29T11:56:20;8.35;;;1.55;;
18568;SDS011;14780;48.316;-1.050;2022-07-29T11:59:07;5.47;;;1.08;;
18568;SDS011;14780;48.316;-1.050;2022-07-29T12:01:55;7.15;;;1.40;;
18568;SDS011;14780;48.316;-1.050;2022-07-29T12:04:54;5.97;;;1.50;;
18568;SDS011;14780;48.316;-1.050;2022-07-29T12:07:40;11.75;;;1.35;;
18568;SDS011;14780;48.316;-1.050;2022-07-29T12:10:29;4.40;;;1.65;;
18568;SDS011;14780;48.316;-1.050;2022-07-29T12:13:15;4.47;;;1.23;;
18568;SDS011;14780;48.316;-1.050;2022-07-29T12:16:02;5.00;;;1.10;;
18568;SDS011;14780;48.316;-1.050;2022-07-29T12:18:57;4.80;;;1.05;;
18568;SDS011;14780;48.316;-1.050;2022-07-29T12:21:43;5.50;;;1.33;;
18568;SDS011;14780;48.316;-1.050;2022-07-29T12:24:42;6.28;;;1.60;;
18568;SDS011;14780;48.316;-1.050;2022-07-29T12:27:28;3.72;;;1.08;;
18568;SDS011;14780;48.316;-1.050;2022-07-29T12:30:13;10.30;;;1.80;;
18568;SDS011;14780;48.316;-1.050;2022-07-29T12:32:59;10.10;;;1.48;;
18568;SDS011;14780;48.316;-1.050;2022-07-29T12:35:44;9.05;;;1.10;;
18568;SDS011;14780;48.316;-1.050;2022-07-29T12:41:20;7.90;;;1.40;;
18568;SDS011;14780;48.316;-1.050;2022-07-29T12:44:05;7.32;;;1.35;;
18568;SDS011;14780;48.316;-1.050;2022-07-29T12:47:03;8.88;;;1.30;;
18568;SDS011;14780;48.316;-1.050;2022-07-29T12:49:48;6.80;;;1.17;;
18568;SDS011;14780;48.316;-1.050;2022-07-29T12:52:33;7.65;;;1.45;;
18568;SDS011;14780;48.316;-1.050;2022-07-29T12:55:38;7.40;;;1.52;;
18568;SDS011;14780;48.316;-1.050;2022-07-29T12:58:39;8.32;;;1.50;;
18568;SDS011;14780;48.316;-1.050;2022-07-29T13:01:25;11.02;;;1.55;;
18568;SDS011;14780;48.316;-1.050;2022-07-29T13:04:10;8.40;;;1.35;;
18568;SDS011;14780;48.316;-1.050;2022-07-29T13:07:07;9.60;;;1.13;;
18568;SDS011;14780;48.316;-1.050;2022-07-29T13:09:52;5.93;;;1.70;;
18568;SDS011;14780;48.316;-1.050;2022-07-29T13:12:38;5.47;;;1.10;;
18568;SDS011;14780;48.316;-1.050;2022-07-29T13:15:23;6.28;;;1.48;;
18568;SDS011;14780;48.316;-1.050;2022-07-29T13:18:26;6.90;;;1.35;;
18568;SDS011;14780;48.316;-1.050;2022-07-29T13:21:14;4.53;;;1.20;;
18568;SDS011;14780;48.316;-1.050;2022-07-29T13:23:59;5.07;;;1.15;;
18568;SDS011;14780;48.316;-1.050;2022-07-29T13:26:44;5.53;;;1.30;;
18568;SDS011;14780;48.316;-1.050;2022-07-29T13:29:29;4.82;;;1.10;;
18568;SDS011;14780;48.316;-1.050;2022-07-29T13:32:14;6.18;;;0.93;;
18568;SDS011;14780;48.316;-1.050;2022-07-29T13:34:59;6.07;;;1.10;;
18568;SDS011;14780;48.316;-1.050;2022-07-29T13:37:45;3.35;;;0.90;;
18568;SDS011;14780;48.316;-1.050;2022-07-29T13:40:31;7.43;;;1.08;;
18568;SDS011;14780;48.316;-1.050;2022-07-29T13:43:17;4.05;;;0.90;;
18568;SDS011;14780;48.316;-1.050;2022-07-29T13:46:02;7.45;;;1.98;;
18568;SDS011;14780;48.316;-1.050;2022-07-29T13:48:47;4.95;;;1.30;;
18568;SDS011;14780;48.316;-1.050;2022-07-29T13:51:31;5.93;;;1.08;;
18568;SDS011;14780;48.316;-1.050;2022-07-29T13:54:16;4.20;;;0.90;;
18568;SDS011;14780;48.316;-1.050;2022-07-29T13:57:01;7.32;;;1.15;;
18568;SDS011;14780;48.316;-1.050;2022-07-29T13:59:46;8.77;;;0.98;;
18568;SDS011;14780;48.316;-1.050;2022-07-29T14:02:30;4.78;;;1.17;;
18568;SDS011;14780;48.316;-1.050;2022-07-29T14:05:16;4.85;;;1.02;;
18568;SDS011;14780;48.316;-1.050;2022-07-29T14:08:01;3.90;;;1.00;;
18568;SDS011;14780;48.316;-1.050;2022-07-29T14:10:46;2.15;;;0.88;;
18568;SDS011;14780;48.316;-1.050;2022-07-29T14:13:31;4.18;;;0.90;;
18568;SDS011;14780;48.316;-1.050;2022-07-29T14:16:15;2.55;;;0.75;;
18568;SDS011;14780;48.316;-1.050;2022-07-29T14:19:00;3.05;;;1.10;;
18568;SDS011;14780;48.316;-1.050;2022-07-29T14:21:45;2.45;;;0.85;;
18568;SDS011;14780;48.316;-1.050;2022-07-29T14:24:30;2.22;;;0.90;;
18568;SDS011;14780;48.316;-1.050;2022-07-29T14:27:15;4.07;;;0.93;;
18568;SDS011;14780;48.316;-1.050;2022-07-29T14:29:59;2.38;;;0.63;;
18568;SDS011;14780;48.316;-1.050;2022-07-29T14:32:44;2.28;;;0.73;;
18568;SDS011;14780;48.316;-1.050;2022-07-29T14:35:28;6.43;;;1.15;;
18568;SDS011;14780;48.316;-1.050;2022-07-29T14:38:13;3.13;;;0.80;;
18568;SDS011;14780;48.316;-1.050;2022-07-29T14:40:57;2.65;;;0.80;;
18568;SDS011;14780;48.316;-1.050;2022-07-29T14:43:42;2.72;;;1.13;;
18568;SDS011;14780;48.316;-1.050;2022-07-29T14:46:27;4.63;;;0.88;;
18568;SDS011;14780;48.316;-1.050;2022-07-29T14:49:15;2.70;;;0.90;;
18568;SDS011;14780;48.316;-1.050;2022-07-29T14:51:59;1.38;;;0.40;;
18568;SDS011;14780;48.316;-1.050;2022-07-29T14:54:44;1.58;;;0.73;;
18568;SDS011;14780;48.316;-1.050;2022-07-29T14:57:29;1.90;;;0.60;;
18568;SDS011;14780;48.316;-1.050;2022-07-29T15:00:14;4.05;;;1.13;;
18568;SDS011;14780;48.316;-1.050;2022-07-29T15:03:00;2.50;;;0.60;;
18568;SDS011;14780;48.316;-1.050;2022-07-29T15:05:45;4.38;;;0.82;;
18568;SDS011;14780;48.316;-1.050;2022-07-29T15:08:30;3.10;;;0.70;;
18568;SDS011;14780;48.316;-1.050;2022-07-29T15:11:14;3.72;;;0.70;;
18568;SDS011;14780;48.316;-1.050;2022-07-29T15:13:59;1.50;;;0.65;;
18568;SDS011;14780;48.316;-1.050;2022-07-29T15:16:43;2.20;;;0.80;;
18568;SDS011;14780;48.316;-1.050;2022-07-29T15:19:28;1.90;;;0.77;;
18568;SDS011;14780;48.316;-1.050;2022-07-29T15:22:13;2.40;;;0.80;;
18568;SDS011;14780;48.316;-1.050;2022-07-29T15:24:58;3.63;;;1.00;;
18568;SDS011;14780;48.316;-1.050;2022-07-29T15:27:43;3.50;;;0.70;;
18568;SDS011;14780;48.316;-1.050;2022-07-29T15:30:31;2.35;;;0.65;;
18568;SDS011;14780;48.316;-1.050;2022-07-29T15:33:16;1.65;;;0.77;;
18568;SDS011;14780;48.316;-1.050;2022-07-29T15:36:01;2.22;;;0.65;;
18568;SDS011;14780;48.316;-1.050;2022-07-29T15:38:48;2.08;;;0.63;;
18568;SDS011;14780;48.316;-1.050;2022-07-29T15:41:36;2.75;;;0.50;;
18568;SDS011;14780;48.316;-1.050;2022-07-29T15:44:21;2.13;;;0.70;;
18568;SDS011;14780;48.316;-1.050;2022-07-29T15:47:06;3.08;;;0.80;;
18568;SDS011;14780;48.316;-1.050;2022-07-29T15:49:50;1.25;;;0.50;;
18568;SDS011;14780;48.316;-1.050;2022-07-29T15:52:35;2.38;;;0.73;;
18568;SDS011;14780;48.316;-1.050;2022-07-29T15:55:20;3.47;;;0.73;;
18568;SDS011;14780;48.316;-1.050;2022-07-29T15:58:04;2.92;;;0.55;;
18568;SDS011;14780;48.316;-1.050;2022-07-29T16:00:49;2.25;;;0.60;;
18568;SDS011;14780;48.316;-1.050;2022-07-29T16:03:34;1.58;;;0.73;;
18568;SDS011;14780;48.316;-1.050;2022-07-29T16:06:19;2.92;;;0.93;;
18568;SDS011;14780;48.316;-1.050;2022-07-29T16:09:04;1.45;;;0.40;;
18568;SDS011;14780;48.316;-1.050;2022-07-29T16:11:48;3.10;;;0.90;;
18568;SDS011;14780;48.316;-1.050;2022-07-29T16:14:36;2.55;;;0.68;;
18568;SDS011;14780;48.316;-1.050;2022-07-29T16:17:20;1.67;;;0.70;;
18568;SDS011;14780;48.316;-1.050;2022-07-29T16:20:06;1.92;;;0.68;;
18568;SDS011;14780;48.316;-1.050;2022-07-29T16:22:51;3.58;;;0.90;;
18568;SDS011;14780;48.316;-1.050;2022-07-29T16:25:35;3.53;;;0.80;;
18568;SDS011;14780;48.316;-1.050;2022-07-29T16:28:23;2.05;;;0.50;;
18568;SDS011;14780;48.316;-1.050;2022-07-29T16:31:07;2.00;;;0.73;;
18568;SDS011;14780;48.316;-1.050;2022-07-29T16:33:53;2.35;;;0.80;;
18568;SDS011;14780;48.316;-1.050;2022-07-29T16:36:38;1.67;;;0.60;;
18568;SDS011;14780;48.316;-1.050;2022-07-29T16:39:22;1.42;;;0.50;;
18568;SDS011;14780;48.316;-1.050;2022-07-29T16:42:07;3.00;;;0.70;;
18568;SDS011;14780;48.316;-1.050;2022-07-29T16:44:52;2.70;;;0.95;;
18568;SDS011;14780;48.316;-1.050;2022-07-29T16:47:36;1.80;;;0.63;;
18568;SDS011;14780;48.316;-1.050;2022-07-29T16:50:21;0.88;;;0.40;;
18568;SDS011;14780;48.316;-1.050;2022-07-29T16:53:06;1.73;;;0.70;;
18568;SDS011;14780;48.316;-1.050;2022-07-29T16:55:51;2.75;;;0.85;;
18568;SDS011;14780;48.316;-1.050;2022-07-29T16:58:36;2.05;;;0.68;;
18568;SDS011;14780;48.316;-1.050;2022-07-29T17:01:20;2.20;;;0.68;;
18568;SDS011;14780;48.316;-1.050;2022-07-29T17:04:06;1.65;;;0.68;;
18568;SDS011;14780;48.316;-1.050;2022-07-29T17:06:50;2.05;;;0.88;;
18568;SDS011;14780;48.316;-1.050;2022-07-29T17:09:35;1.33;;;0.57;;
18568;SDS011;14780;48.316;-1.050;2022-07-29T17:12:20;3.22;;;0.47;;
18568;SDS011;14780;48.316;-1.050;2022-07-29T17:15:06;1.77;;;0.80;;